createdAt,value
2018-03-08T00:01:03.540Z,5.98
2018-03-08T00:03:34.188Z,6.00
2018-03-08T00:06:05.110Z,5.89
2018-03-08T00:08:36.342Z,5.80
2018-03-08T00:11:07.041Z,5.77
2018-03-08T00:13:38.382Z,5.81
2018-03-08T00:16:09.076Z,5.77
2018-03-08T00:18:40.383Z,5.77
2018-03-08T00:21:12.484Z,5.73
2018-03-08T00:23:41.737Z,5.76
2018-03-08T00:26:12.358Z,5.76
2018-03-08T00:28:43.170Z,5.76
2018-03-08T00:31:17.385Z,5.80
2018-03-08T00:33:46.529Z,5.80
2018-03-08T00:36:16.479Z,5.80
2018-03-08T00:38:47.219Z,5.81
2018-03-08T00:41:18.019Z,5.81
2018-03-08T00:43:49.836Z,5.85
2018-03-08T00:46:20.363Z,5.82
2018-03-08T00:48:51.121Z,5.80
2018-03-08T00:51:21.972Z,5.86
2018-03-08T00:53:54.308Z,5.85
2018-03-08T00:56:24.728Z,5.82
2018-03-08T00:58:55.738Z,5.76
2018-03-08T01:01:25.662Z,5.79
2018-03-08T01:03:56.156Z,5.71
2018-03-08T01:06:28.023Z,5.65
2018-03-08T01:08:58.802Z,5.66
2018-03-08T01:11:30.383Z,5.68
2018-03-08T01:14:00.823Z,5.61
2018-03-08T01:16:31.449Z,5.58
2018-03-08T01:19:02.062Z,5.52
2018-03-08T01:21:33.373Z,5.52
2018-03-08T01:24:05.006Z,5.47
2018-03-08T01:26:35.762Z,5.48
2018-03-08T01:29:06.393Z,5.46
2018-03-08T01:31:37.833Z,5.48
2018-03-08T01:34:08.481Z,5.56
2018-03-08T01:36:39.139Z,5.54
2018-03-08T01:39:10.156Z,5.48
2018-03-08T01:41:40.667Z,5.51
2018-03-08T01:44:11.306Z,5.46
2018-03-08T01:46:42.122Z,5.41
2018-03-08T01:49:13.479Z,5.41
2018-03-08T01:51:55.431Z,5.45
2018-03-08T01:54:25.023Z,5.40
2018-03-08T01:56:54.328Z,5.34
2018-03-08T01:59:23.492Z,5.32
2018-03-08T02:01:52.757Z,5.31
2018-03-08T02:04:21.886Z,5.32
2018-03-08T02:06:51.017Z,5.28
2018-03-08T02:09:21.662Z,5.29
2018-03-08T02:11:52.315Z,5.27
2018-03-08T02:14:23.575Z,5.31
2018-03-08T02:16:54.552Z,5.26
2018-03-08T02:19:25.262Z,5.20
2018-03-08T02:21:55.865Z,5.12
2018-03-08T02:24:28.991Z,5.17
2018-03-08T02:26:58.192Z,5.11
2018-03-08T02:29:27.768Z,5.07
2018-03-08T02:31:58.358Z,5.06
2018-03-08T02:34:28.853Z,5.04
2018-03-08T02:36:59.486Z,5.01
2018-03-08T02:39:30.166Z,4.98
2018-03-08T02:42:01.342Z,4.97
2018-03-08T02:44:32.202Z,4.97
2018-03-08T02:47:03.971Z,5.08
2018-03-08T02:49:34.609Z,5.02
2018-03-08T02:52:05.266Z,5.01
2018-03-08T02:54:35.930Z,4.95
2018-03-08T02:57:06.303Z,4.97
2018-03-08T02:59:37.274Z,4.89
2018-03-08T03:02:08.826Z,4.94
2018-03-08T03:04:40.927Z,4.95
2018-03-08T03:07:12.548Z,4.90
2018-03-08T03:09:41.741Z,4.93
2018-03-08T03:12:13.326Z,4.93
2018-03-08T03:14:43.875Z,4.95
2018-03-08T03:17:15.180Z,4.92
2018-03-08T03:19:46.110Z,4.90
2018-03-08T03:22:15.468Z,4.92
2018-03-08T03:24:46.048Z,4.92
2018-03-08T03:27:17.412Z,4.89
2018-03-08T03:29:48.950Z,4.88
2018-03-08T03:32:20.436Z,4.89
2018-03-08T03:34:52.266Z,4.87
2018-03-08T03:37:21.788Z,4.88
2018-03-08T03:39:52.506Z,4.87
2018-03-08T03:42:23.138Z,4.88
2018-03-08T03:44:54.273Z,4.87
2018-03-08T03:47:24.703Z,4.89
2018-03-08T03:49:55.691Z,4.87
2018-03-08T03:52:26.126Z,4.87
2018-03-08T03:54:57.717Z,4.89
2018-03-08T03:57:32.532Z,4.88
2018-03-08T04:00:01.785Z,4.86
2018-03-08T04:02:31.086Z,4.88
2018-03-08T04:05:00.684Z,4.83
2018-03-08T04:07:31.254Z,4.84
2018-03-08T04:10:03.118Z,4.86
2018-03-08T04:12:33.917Z,4.90
2018-03-08T04:15:04.116Z,4.93
2018-03-08T04:17:35.929Z,4.94
2018-03-08T04:20:08.090Z,4.98
2018-03-08T04:22:37.777Z,5.02
2018-03-08T04:25:09.121Z,4.97
2018-03-08T04:27:39.795Z,4.98
2018-03-08T04:30:11.739Z,5.00
2018-03-08T04:32:41.662Z,5.03
2018-03-08T04:35:12.516Z,4.99
2018-03-08T04:37:43.121Z,4.98
2018-03-08T04:40:14.628Z,4.96
2018-03-08T04:42:45.345Z,4.98
2018-03-08T04:45:16.643Z,4.99
2018-03-08T04:47:46.145Z,4.97
2018-03-08T04:50:17.237Z,4.97
2018-03-08T04:52:52.228Z,5.01
2018-03-08T04:55:21.539Z,4.99
2018-03-08T04:57:51.440Z,4.96
2018-03-08T05:00:21.451Z,4.93
2018-03-08T05:02:52.049Z,4.96
2018-03-08T05:05:24.556Z,4.93
2018-03-08T05:07:57.030Z,4.90
2018-03-08T05:10:25.921Z,4.88
2018-03-08T05:12:55.710Z,4.85
2018-03-08T05:15:27.302Z,4.83
2018-03-08T05:17:57.876Z,4.90
2018-03-08T05:20:28.601Z,4.85
2018-03-08T05:22:59.995Z,4.86
2018-03-08T05:25:30.587Z,4.87
2018-03-08T05:28:01.420Z,4.86
2018-03-08T05:30:36.460Z,4.87
2018-03-08T05:33:05.580Z,4.91
2018-03-08T05:35:34.719Z,4.93
2018-03-08T05:38:03.936Z,4.93
2018-03-08T05:40:34.532Z,4.90
2018-03-08T05:43:04.887Z,4.90
2018-03-08T05:45:35.402Z,4.95
2018-03-08T05:48:06.114Z,4.91
2018-03-08T05:50:36.661Z,4.92
2018-03-08T05:53:08.431Z,4.89
2018-03-08T05:55:38.775Z,4.93
2018-03-08T05:58:09.408Z,4.95
2018-03-08T06:00:42.210Z,4.95
2018-03-08T06:03:11.699Z,4.92
2018-03-08T06:05:42.232Z,4.91
2018-03-08T06:08:13.383Z,4.95
2018-03-08T06:10:43.671Z,5.00
2018-03-08T06:13:14.604Z,4.97
2018-03-08T06:15:45.159Z,4.96
2018-03-08T06:18:16.843Z,4.99
2018-03-08T06:20:48.531Z,5.01
2018-03-08T06:23:18.536Z,5.02
2018-03-08T06:25:49.186Z,4.97
2018-03-08T06:28:20.534Z,5.00
2018-03-08T06:30:50.789Z,5.02
2018-03-08T06:33:22.393Z,5.07
2018-03-08T06:35:53.105Z,5.05
2018-03-08T06:38:24.074Z,5.08
2018-03-08T06:40:55.619Z,5.12
2018-03-08T06:43:26.288Z,5.13
2018-03-08T06:45:57.063Z,5.15
2018-03-08T06:48:28.480Z,5.18
2018-03-08T06:50:58.855Z,5.19
2018-03-08T06:53:30.496Z,5.20
2018-03-08T06:56:01.237Z,5.22
2018-03-08T06:58:32.832Z,5.24
2018-03-08T07:01:03.469Z,5.26
2018-03-08T07:03:34.378Z,5.31
2018-03-08T07:06:05.266Z,5.33
2018-03-08T07:08:36.378Z,5.42
2018-03-08T07:11:06.764Z,5.40
2018-03-08T07:13:37.146Z,5.47
2018-03-08T07:16:07.911Z,5.42
2018-03-08T07:18:38.708Z,5.44
2018-03-08T07:21:08.694Z,5.49
2018-03-08T07:23:39.393Z,5.49
2018-03-08T07:26:10.702Z,5.57
2018-03-08T07:28:41.340Z,5.60
2018-03-08T07:31:12.487Z,5.61
2018-03-08T07:33:43.643Z,5.75
2018-03-08T07:36:15.099Z,5.73
2018-03-08T07:38:45.853Z,5.75
2018-03-08T07:41:16.635Z,5.76
2018-03-08T07:43:48.391Z,5.82
2018-03-08T07:46:19.266Z,5.87
2018-03-08T07:48:49.733Z,5.93
2018-03-08T07:51:20.302Z,5.94
2018-03-08T07:53:50.700Z,5.96
2018-03-08T07:56:21.416Z,6.01
2018-03-08T07:58:52.168Z,6.10
2018-03-08T08:01:23.017Z,6.15
2018-03-08T08:03:54.395Z,6.19
2018-03-08T08:06:36.086Z,6.21
2018-03-08T08:09:10.974Z,6.28
2018-03-08T08:11:40.205Z,6.32
2018-03-08T08:14:09.406Z,6.37
2018-03-08T08:16:39.044Z,6.41
2018-03-08T08:19:08.385Z,6.42
2018-03-08T08:21:37.542Z,6.46
2018-03-08T08:24:06.800Z,6.51
2018-03-08T08:26:35.963Z,6.55
2018-03-08T08:29:05.178Z,6.62
2018-03-08T08:31:36.182Z,6.60
2018-03-08T08:34:05.457Z,6.61
2018-03-08T08:36:35.686Z,6.69
2018-03-08T08:39:05.855Z,6.78
2018-03-08T08:41:37.280Z,6.81
2018-03-08T08:44:08.084Z,6.83
2018-03-08T08:46:39.456Z,6.94
2018-03-08T08:49:09.937Z,7.05
2018-03-08T08:51:40.166Z,7.09
2018-03-08T08:54:12.137Z,7.14
2018-03-08T08:56:42.759Z,7.18
2018-03-08T08:59:13.334Z,7.27
2018-03-08T09:01:44.162Z,7.32
2018-03-08T09:04:15.171Z,7.38
2018-03-08T09:06:46.046Z,7.46
2018-03-08T09:09:17.585Z,7.58
2018-03-08T09:11:48.155Z,7.68
2018-03-08T09:14:19.176Z,7.74
2018-03-08T09:16:50.115Z,7.77
2018-03-08T09:19:21.180Z,7.88
2018-03-08T09:21:52.031Z,7.95
2018-03-08T09:24:23.532Z,8.05
2018-03-08T09:26:54.133Z,8.05
2018-03-08T09:29:25.454Z,8.01
2018-03-08T09:31:56.030Z,8.09
2018-03-08T09:34:26.650Z,8.12
2018-03-08T09:36:56.500Z,8.14
2018-03-08T09:39:27.272Z,8.14
2018-03-08T09:41:58.132Z,8.08
2018-03-08T09:44:28.740Z,8.14
2018-03-08T09:46:59.033Z,8.19
2018-03-08T09:49:30.400Z,8.19
2018-03-08T09:52:01.048Z,8.22
2018-03-08T09:54:32.538Z,8.40
2018-03-08T09:57:02.654Z,8.93
2018-03-08T09:59:33.325Z,9.14
2018-03-08T10:02:04.124Z,8.95
2018-03-08T10:04:35.568Z,8.91
2018-03-08T10:07:06.237Z,8.91
2018-03-08T10:09:36.679Z,8.95
2018-03-08T10:12:07.384Z,9.07
2018-03-08T10:14:38.187Z,9.16
2018-03-08T10:17:09.564Z,9.26
2018-03-08T10:19:40.615Z,9.30
2018-03-08T10:22:10.244Z,9.40
2018-03-08T10:24:41.103Z,9.59
2018-03-08T10:27:12.080Z,9.72
2018-03-08T10:29:43.476Z,9.81
2018-03-08T10:32:14.889Z,9.98
2018-03-08T10:34:45.674Z,10.07
2018-03-08T10:37:16.418Z,10.04
2018-03-08T10:39:47.716Z,10.08
2018-03-08T10:42:18.275Z,10.02
2018-03-08T10:44:49.233Z,10.00
2018-03-08T10:47:20.141Z,10.05
2018-03-08T10:49:50.804Z,10.19
2018-03-08T10:52:22.375Z,10.20
2018-03-08T10:54:53.211Z,10.19
2018-03-08T10:57:24.113Z,10.18
2018-03-08T10:59:55.576Z,10.30
2018-03-08T11:02:31.627Z,10.17
2018-03-08T11:05:01.496Z,9.98
2018-03-08T11:07:30.622Z,9.83
2018-03-08T11:10:03.898Z,9.73
2018-03-08T11:12:33.024Z,9.52
2018-03-08T11:15:02.184Z,9.53
2018-03-08T11:17:32.668Z,9.51
2018-03-08T11:20:03.254Z,9.58
2018-03-08T11:22:34.148Z,9.60
2018-03-08T11:25:05.065Z,9.54
2018-03-08T11:27:36.535Z,9.49
2018-03-08T11:30:07.129Z,9.45
2018-03-08T11:32:38.553Z,9.38
2018-03-08T11:35:09.064Z,9.41
2018-03-08T11:37:40.040Z,9.43
2018-03-08T11:40:12.229Z,9.35
2018-03-08T11:42:42.679Z,9.39
2018-03-08T11:45:12.500Z,9.39
2018-03-08T11:47:43.155Z,9.43
2018-03-08T11:50:14.020Z,9.53
2018-03-08T11:52:45.408Z,9.54
2018-03-08T11:55:16.029Z,9.57
2018-03-08T11:57:47.004Z,9.51
2018-03-08T12:00:18.244Z,9.47
2018-03-08T12:02:49.121Z,9.44
2018-03-08T12:05:20.412Z,9.50
2018-03-08T12:07:51.106Z,9.40
2018-03-08T12:10:22.042Z,9.33
2018-03-08T12:12:53.041Z,9.19
2018-03-08T12:15:24.383Z,9.22
2018-03-08T12:17:55.124Z,9.11
2018-03-08T12:20:26.352Z,9.16
2018-03-08T12:22:57.100Z,9.25
2018-03-08T12:25:28.334Z,9.18
2018-03-08T12:27:59.028Z,9.18
2018-03-08T12:30:30.328Z,9.02
2018-03-08T12:33:01.375Z,8.96
2018-03-08T12:35:32.026Z,9.02
2018-03-08T12:38:03.443Z,8.96
2018-03-08T12:40:34.125Z,8.94
2018-03-08T12:43:05.108Z,8.99
2018-03-08T12:45:36.405Z,8.94
2018-03-08T12:48:07.167Z,8.95
2018-03-08T12:50:38.163Z,8.93
2018-03-08T12:53:09.088Z,8.94
2018-03-08T12:55:40.628Z,8.80
2018-03-08T12:58:10.012Z,8.86
2018-03-08T13:00:40.708Z,8.87
2018-03-08T13:03:12.029Z,8.87
2018-03-08T13:05:42.696Z,8.85
2018-03-08T13:08:13.608Z,8.87
2018-03-08T13:10:44.515Z,8.83
2018-03-08T13:13:17.148Z,8.87
2018-03-08T13:15:48.626Z,8.77
2018-03-08T13:18:18.478Z,8.74
2018-03-08T13:20:49.214Z,8.80
2018-03-08T13:23:20.029Z,8.78
2018-03-08T13:25:50.691Z,8.75
2018-03-08T13:28:21.258Z,8.81
2018-03-08T13:30:52.167Z,8.82
2018-03-08T13:33:23.097Z,8.71
2018-03-08T13:35:54.512Z,8.74
2018-03-08T13:38:25.114Z,8.78
2018-03-08T13:40:56.111Z,8.74
2018-03-08T13:43:27.078Z,8.76
2018-03-08T13:45:58.429Z,8.78
2018-03-08T13:48:28.709Z,8.82
2018-03-08T13:50:59.374Z,8.88
2018-03-08T13:53:30.051Z,8.92
2018-03-08T13:56:01.656Z,9.03
2018-03-08T13:58:32.340Z,9.02
2018-03-08T14:01:03.182Z,9.08
2018-03-08T14:03:34.306Z,9.14
2018-03-08T14:06:04.923Z,9.17
2018-03-08T14:08:36.598Z,9.40
2018-03-08T14:11:06.568Z,9.59
2018-03-08T14:13:37.271Z,9.78
2018-03-08T14:16:08.169Z,9.72
2018-03-08T14:18:38.991Z,9.78
2018-03-08T14:21:10.365Z,9.61
2018-03-08T14:23:41.214Z,9.67
2018-03-08T14:26:12.098Z,9.69
2018-03-08T14:28:43.379Z,10.11
2018-03-08T14:31:15.139Z,10.59
2018-03-08T14:33:45.688Z,11.11
2018-03-08T14:36:16.449Z,11.28
2018-03-08T14:38:47.190Z,11.49
2018-03-08T14:41:17.845Z,11.55
2018-03-08T14:43:48.437Z,11.64
2018-03-08T14:46:20.116Z,11.48
2018-03-08T14:48:51.724Z,11.58
2018-03-08T14:51:22.443Z,11.69
2018-03-08T14:53:52.786Z,11.69
2018-03-08T14:56:23.480Z,11.73
2018-03-08T14:58:54.180Z,11.66
2018-03-08T15:01:25.171Z,11.71
2018-03-08T15:03:55.666Z,11.51
2018-03-08T15:06:27.467Z,11.33
2018-03-08T15:08:57.546Z,11.06
2018-03-08T15:11:28.251Z,10.86
2018-03-08T15:13:58.761Z,10.86
2018-03-08T15:16:28.789Z,10.70
2018-03-08T15:18:59.658Z,10.91
2018-03-08T15:21:30.423Z,11.07
2018-03-08T15:24:01.221Z,11.12
2018-03-08T15:26:32.697Z,11.24
2018-03-08T15:29:03.377Z,11.32
2018-03-08T15:31:35.004Z,11.36
2018-03-08T15:34:05.414Z,11.36
2018-03-08T15:36:35.881Z,11.39
2018-03-08T15:39:06.535Z,11.27
2018-03-08T15:41:37.523Z,11.22
2018-03-08T15:44:07.548Z,11.18
2018-03-08T15:46:38.254Z,11.09
2018-03-08T15:49:09.003Z,11.00
2018-03-08T15:51:40.412Z,10.91
2018-03-08T15:54:11.112Z,10.83
2018-03-08T15:56:41.905Z,10.75
2018-03-08T15:59:12.414Z,10.69
2018-03-08T16:01:43.140Z,10.64
2018-03-08T16:04:14.073Z,10.50
2018-03-08T16:10:15.601Z,10.38
2018-03-08T16:12:44.701Z,10.32
2018-03-08T16:15:13.586Z,10.22
2018-03-08T16:17:47.577Z,10.23
2018-03-08T16:20:16.578Z,10.21
2018-03-08T16:22:45.589Z,10.12
2018-03-08T16:25:14.871Z,10.02
2018-03-08T16:27:43.652Z,9.97
2018-03-08T16:30:12.642Z,9.97
2018-03-08T16:32:41.485Z,9.97
2018-03-08T16:35:10.609Z,9.87
2018-03-08T16:37:39.598Z,9.77
2018-03-08T16:40:08.412Z,9.73
2018-03-08T16:42:37.512Z,9.57
2018-03-08T16:45:06.543Z,9.44
2018-03-08T16:47:35.696Z,9.37
2018-03-08T16:50:04.441Z,9.38
2018-03-08T16:52:33.542Z,9.38
2018-03-08T16:55:02.737Z,9.37
2018-03-08T16:57:31.699Z,9.38
2018-03-08T17:00:00.588Z,9.33
2018-03-08T17:02:29.733Z,9.18
2018-03-08T17:04:58.625Z,9.20
2018-03-08T17:07:27.375Z,9.04
2018-03-08T17:09:56.606Z,9.02
2018-03-08T17:12:25.577Z,8.85
2018-03-08T17:14:54.432Z,8.78
2018-03-08T17:17:23.443Z,8.76
2018-03-08T17:19:52.758Z,8.69
2018-03-08T17:22:21.864Z,8.68
2018-03-08T17:24:51.408Z,8.63
2018-03-08T17:27:20.730Z,8.58
2018-03-08T17:29:50.065Z,8.51
2018-03-08T17:32:19.477Z,8.43
2018-03-08T17:34:48.718Z,8.39
2018-03-08T17:37:18.651Z,8.32
2018-03-08T17:39:49.704Z,8.36
2018-03-08T17:42:19.502Z,8.22
2018-03-08T17:44:50.122Z,8.13
2018-03-08T17:47:21.023Z,8.04
2018-03-08T17:49:51.638Z,7.96
2018-03-08T17:52:21.739Z,7.92
2018-03-08T17:54:52.736Z,7.85
2018-03-08T17:57:23.604Z,7.83
2018-03-08T17:59:54.664Z,7.76
2018-03-08T18:02:25.592Z,7.73
2018-03-08T18:04:56.508Z,7.71
2018-03-08T18:07:27.439Z,7.62
2018-03-08T18:09:58.432Z,7.54
2018-03-08T18:12:29.365Z,7.50
2018-03-08T18:15:00.400Z,7.47
2018-03-08T18:17:31.337Z,7.48
2018-03-08T18:20:02.793Z,7.46
2018-03-08T18:22:33.680Z,7.45
2018-03-08T18:25:04.648Z,7.44
2018-03-08T18:27:35.497Z,7.38
2018-03-08T18:30:06.478Z,7.34
2018-03-08T18:32:37.391Z,7.31
2018-03-08T18:35:08.487Z,7.29
2018-03-08T18:37:39.078Z,7.26
2018-03-08T18:40:10.703Z,7.22
2018-03-08T18:42:41.590Z,7.17
2018-03-08T18:45:12.503Z,7.13
2018-03-08T18:47:43.449Z,7.22
2018-03-08T18:50:14.402Z,7.24
2018-03-08T18:52:46.032Z,7.17
2018-03-08T18:55:17.420Z,7.11
2018-03-08T18:57:48.036Z,7.04
2018-03-08T19:00:19.475Z,7.00
2018-03-08T19:02:50.036Z,6.96
2018-03-08T19:05:21.463Z,6.88
2018-03-08T19:07:52.067Z,6.84
2018-03-08T19:10:23.436Z,6.78
2018-03-08T19:12:54.117Z,6.66
2018-03-08T19:15:25.064Z,6.61
2018-03-08T19:17:56.463Z,6.56
2018-03-08T19:20:27.145Z,6.55
2018-03-08T19:22:58.069Z,6.51
2018-03-08T19:25:29.446Z,6.53
2018-03-08T19:28:00.010Z,6.57
2018-03-08T19:30:31.472Z,6.45
2018-03-08T19:33:02.089Z,6.36
2018-03-08T19:35:33.554Z,6.30
2018-03-08T19:38:04.153Z,6.22
2018-03-08T19:40:35.126Z,6.25
2018-03-08T19:43:06.056Z,6.14
2018-03-08T19:45:36.710Z,6.17
2018-03-08T19:48:07.211Z,6.10
2018-03-08T19:50:38.105Z,6.06
2018-03-08T19:53:08.584Z,6.00
2018-03-08T19:55:40.576Z,5.81
2018-03-08T19:58:10.497Z,5.94
2018-03-08T20:00:40.464Z,5.92
2018-03-08T20:03:11.061Z,5.91
2018-03-08T20:05:42.386Z,5.95
2018-03-08T20:08:13.051Z,5.94
2018-03-08T20:10:44.917Z,5.87
2018-03-08T20:13:15.483Z,5.82
2018-03-08T20:15:46.166Z,5.81
2018-03-08T20:18:17.145Z,5.74
2018-03-08T20:20:48.090Z,5.71
2018-03-08T20:23:19.289Z,5.74
2018-03-08T20:25:50.059Z,5.64
2018-03-08T20:28:20.591Z,5.65
2018-03-08T20:30:51.284Z,5.61
2018-03-08T20:33:22.041Z,5.51
2018-03-08T20:35:53.545Z,5.55
2018-03-08T20:38:24.156Z,5.52
2018-03-08T20:40:54.915Z,5.47
2018-03-08T20:43:26.273Z,5.40
2018-03-08T20:45:57.197Z,5.36
2018-03-08T20:48:27.994Z,5.37
2018-03-08T20:50:59.427Z,5.33
2018-03-08T20:53:30.629Z,5.34
2018-03-08T20:56:01.235Z,5.27
2018-03-08T20:58:31.945Z,5.24
2018-03-08T21:01:03.506Z,5.21
2018-03-08T21:03:34.281Z,5.23
2018-03-08T21:06:05.208Z,5.26
2018-03-08T21:08:36.088Z,5.21
2018-03-08T21:11:07.432Z,5.18
2018-03-08T21:13:38.096Z,5.26
2018-03-08T21:16:09.079Z,5.17
2018-03-08T21:18:40.437Z,5.15
2018-03-08T21:21:11.238Z,5.13
2018-03-08T21:23:42.237Z,5.14
2018-03-08T21:26:13.160Z,5.17
2018-03-08T21:28:44.052Z,5.18
2018-03-08T21:31:15.712Z,5.10
2018-03-08T21:33:46.337Z,5.14
2018-03-08T21:36:17.183Z,5.12
2018-03-08T21:38:48.411Z,5.13
2018-03-08T21:41:19.115Z,5.20
2018-03-08T21:43:50.428Z,5.20
2018-03-08T21:46:21.082Z,5.17
2018-03-08T21:48:52.374Z,5.19
2018-03-08T21:51:23.015Z,5.14
2018-03-08T21:53:53.545Z,5.17
2018-03-08T21:56:25.747Z,5.17
2018-03-08T21:58:55.560Z,5.23
2018-03-08T22:01:26.149Z,5.16
2018-03-08T22:03:57.042Z,5.21
2018-03-08T22:06:28.264Z,5.25
2018-03-08T22:08:59.154Z,5.30
2018-03-08T22:11:30.087Z,5.23
2018-03-08T22:14:01.340Z,5.19
2018-03-08T22:16:32.031Z,5.29
2018-03-08T22:19:03.401Z,5.32
2018-03-08T22:21:34.127Z,5.27
2018-03-08T22:24:05.414Z,5.36
2018-03-08T22:26:36.059Z,5.32
2018-03-08T22:29:07.351Z,5.32
2018-03-08T22:31:39.082Z,5.23
2018-03-08T22:34:09.569Z,5.34
2018-03-08T22:36:40.212Z,5.33
2018-03-08T22:39:11.015Z,5.36
2018-03-08T22:41:42.459Z,5.34
2018-03-08T22:44:13.103Z,5.30
2018-03-08T22:46:44.071Z,5.30
2018-03-08T22:49:14.656Z,5.23
2018-03-08T22:51:45.239Z,5.26
2018-03-08T22:54:16.249Z,5.24
2018-03-08T22:56:47.126Z,5.18
2018-03-08T22:59:18.029Z,5.18
2018-03-08T23:04:53.953Z,5.19
2018-03-08T23:07:22.797Z,5.20
2018-03-08T23:09:51.641Z,5.14
2018-03-08T23:12:20.600Z,5.17
2018-03-08T23:14:49.799Z,5.18
2018-03-08T23:17:18.648Z,5.15
2018-03-08T23:19:47.601Z,5.13
2018-03-08T23:22:16.699Z,5.24
2018-03-08T23:24:45.577Z,5.25
2018-03-08T23:27:14.626Z,5.34
2018-03-08T23:29:43.808Z,5.41
2018-03-08T23:32:13.055Z,5.41
2018-03-08T23:34:42.159Z,5.39
2018-03-08T23:37:11.393Z,5.41
2018-03-08T23:39:40.496Z,5.48
2018-03-08T23:42:09.638Z,5.42
2018-03-08T23:44:38.861Z,5.44
2018-03-08T23:47:07.961Z,5.43
2018-03-08T23:49:37.388Z,5.46
2018-03-08T23:52:06.504Z,5.47
2018-03-08T23:54:36.300Z,5.45
2018-03-08T23:57:07.095Z,5.49
2018-03-08T23:59:41.439Z,5.56
